createdAt,value
2022-08-24T00:01:56.917Z,15.30
2022-08-24T00:04:25.597Z,15.20
2022-08-24T00:06:53.941Z,15.20
2022-08-24T00:09:22.060Z,15.10
2022-08-24T00:11:50.011Z,15.10
2022-08-24T00:14:17.988Z,15.10
2022-08-24T00:16:47.923Z,15.10
2022-08-24T00:19:16.483Z,15.00
2022-08-24T00:21:44.531Z,14.90
2022-08-24T00:24:12.477Z,14.80
2022-08-24T00:26:40.414Z,14.70
2022-08-24T00:29:08.631Z,14.70
2022-08-24T00:31:36.922Z,14.60
2022-08-24T00:34:06.744Z,14.60
2022-08-24T00:36:35.814Z,14.50
2022-08-24T00:39:03.938Z,14.40
2022-08-24T00:41:31.926Z,14.40
2022-08-24T00:44:02.211Z,14.30
2022-08-24T00:46:35.376Z,14.30
2022-08-24T00:49:08.933Z,14.20
2022-08-24T00:51:41.654Z,14.20
2022-08-24T00:54:14.617Z,14.20
2022-08-24T00:56:46.899Z,14.20
2022-08-24T00:59:18.207Z,14.20
2022-08-24T01:01:47.462Z,14.10
2022-08-24T01:04:29.085Z,14.10
2022-08-24T01:06:57.762Z,14.00
2022-08-24T01:09:26.442Z,13.90
2022-08-24T01:11:54.948Z,13.90
2022-08-24T01:14:24.724Z,13.80
2022-08-24T01:17:10.242Z,13.80
2022-08-24T01:19:43.703Z,13.80
2022-08-24T01:22:32.742Z,13.70
2022-08-24T01:25:03.035Z,13.70
2022-08-24T01:27:31.620Z,13.60
2022-08-24T01:30:02.601Z,13.60
2022-08-24T01:32:30.992Z,13.60
2022-08-24T01:34:59.316Z,13.60
2022-08-24T01:37:27.454Z,13.50
2022-08-24T01:39:59.334Z,13.50
2022-08-24T01:42:29.980Z,13.50
2022-08-24T01:44:58.351Z,13.60
2022-08-24T01:47:26.282Z,13.60
2022-08-24T01:49:54.321Z,13.50
2022-08-24T01:52:25.455Z,13.50
2022-08-24T01:54:54.484Z,13.50
2022-08-24T01:57:25.607Z,13.40
2022-08-24T01:59:54.865Z,13.40
2022-08-24T02:02:27.771Z,13.40
2022-08-24T02:04:56.170Z,13.40
2022-08-24T02:07:24.631Z,13.40
2022-08-24T02:09:53.061Z,13.40
2022-08-24T02:12:22.600Z,13.40
2022-08-24T02:14:51.461Z,13.40
2022-08-24T02:17:20.769Z,13.40
2022-08-24T02:19:49.026Z,13.40
2022-08-24T02:22:17.031Z,13.40
2022-08-24T02:24:44.966Z,13.30
2022-08-24T02:27:13.280Z,13.30
2022-08-24T02:29:41.361Z,13.20
2022-08-24T02:32:09.343Z,13.10
2022-08-24T02:34:39.651Z,13.10
2022-08-24T02:37:07.651Z,13.00
2022-08-24T02:39:35.551Z,13.00
2022-08-24T02:42:07.062Z,13.00
2022-08-24T02:44:35.095Z,12.90
2022-08-24T02:47:03.242Z,12.90
2022-08-24T02:49:32.711Z,12.90
2022-08-24T02:52:02.039Z,12.90
2022-08-24T02:54:30.389Z,12.90
2022-08-24T02:56:58.390Z,12.90
2022-08-24T02:59:26.379Z,12.90
2022-08-24T03:01:54.661Z,12.90
2022-08-24T03:04:24.209Z,12.90
2022-08-24T03:06:52.565Z,12.80
2022-08-24T03:09:21.823Z,12.80
2022-08-24T03:11:51.921Z,12.70
2022-08-24T03:14:19.908Z,12.70
2022-08-24T03:16:47.944Z,12.70
2022-08-24T03:19:16.218Z,12.60
2022-08-24T03:21:45.899Z,12.60
2022-08-24T03:24:13.892Z,12.50
2022-08-24T03:26:44.542Z,12.50
2022-08-24T03:29:14.003Z,12.50
2022-08-24T03:31:44.046Z,12.50
2022-08-24T03:34:13.780Z,12.50
2022-08-24T03:36:45.950Z,12.40
2022-08-24T03:39:15.691Z,12.40
2022-08-24T03:41:47.016Z,12.40
2022-08-24T03:44:15.444Z,12.40
2022-08-24T03:46:45.861Z,12.40
2022-08-24T03:49:14.843Z,12.30
2022-08-24T03:51:43.595Z,12.30
2022-08-24T03:54:13.485Z,12.30
2022-08-24T03:56:42.304Z,12.30
2022-08-24T03:59:11.636Z,12.30
2022-08-24T04:01:43.400Z,12.30
2022-08-24T04:04:11.828Z,12.30
2022-08-24T04:06:44.170Z,12.30
2022-08-24T04:09:12.731Z,12.40
2022-08-24T04:11:45.982Z,12.40
2022-08-24T04:14:27.047Z,12.40
2022-08-24T04:17:24.998Z,12.40
2022-08-24T04:19:59.363Z,12.40
2022-08-24T04:22:34.978Z,12.40
2022-08-24T04:25:09.610Z,12.40
2022-08-24T04:27:39.865Z,12.30
2022-08-24T04:30:14.146Z,12.30
2022-08-24T04:33:04.558Z,12.30
2022-08-24T04:35:37.951Z,12.30
2022-08-24T04:38:06.145Z,12.30
2022-08-24T04:40:35.730Z,12.30
2022-08-24T04:43:04.647Z,12.30
2022-08-24T04:45:34.475Z,12.30
2022-08-24T04:48:04.857Z,12.40
2022-08-24T04:50:35.916Z,12.40
2022-08-24T04:53:05.388Z,12.40
2022-08-24T04:55:33.939Z,12.50
2022-08-24T04:58:01.972Z,12.50
2022-08-24T05:00:29.922Z,12.60
2022-08-24T05:02:59.913Z,12.60
2022-08-24T05:05:28.217Z,12.70
2022-08-24T05:07:56.754Z,12.80
2022-08-24T05:10:24.991Z,12.80
2022-08-24T05:12:55.493Z,12.90
2022-08-24T05:15:23.414Z,12.90
2022-08-24T05:17:51.616Z,12.90
2022-08-24T05:20:21.658Z,13.00
2022-08-24T05:22:55.941Z,13.10
2022-08-24T05:25:24.729Z,13.10
2022-08-24T05:27:52.681Z,13.20
2022-08-24T05:30:21.660Z,13.30
2022-08-24T05:32:49.754Z,13.30
2022-08-24T05:35:17.993Z,13.40
2022-08-24T05:37:47.535Z,13.40
2022-08-24T05:40:18.333Z,13.50
2022-08-24T05:42:50.789Z,13.60
2022-08-24T05:45:18.775Z,13.70
2022-08-24T05:47:46.760Z,13.70
2022-08-24T05:50:43.681Z,13.80
2022-08-24T05:53:14.411Z,13.90
2022-08-24T05:55:45.002Z,14.00
2022-08-24T05:58:23.069Z,14.10
2022-08-24T06:01:00.312Z,14.20
2022-08-24T06:03:29.032Z,14.30
2022-08-24T06:05:57.781Z,14.40
2022-08-24T06:08:27.300Z,14.50
2022-08-24T06:10:55.672Z,14.60
2022-08-24T06:13:24.142Z,14.70
2022-08-24T06:16:20.261Z,14.80
2022-08-24T06:18:50.740Z,14.90
2022-08-24T06:21:22.051Z,15.10
2022-08-24T06:23:52.042Z,15.30
2022-08-24T06:26:38.827Z,15.40
2022-08-24T06:29:07.379Z,15.50
2022-08-24T06:31:43.322Z,15.70
2022-08-24T06:34:14.276Z,15.90
2022-08-24T06:36:42.468Z,16.00
2022-08-24T06:39:12.697Z,16.10
2022-08-24T06:41:45.525Z,16.30
2022-08-24T06:44:18.812Z,16.40
2022-08-24T06:46:53.591Z,16.60
2022-08-24T06:49:21.924Z,16.80
2022-08-24T06:51:51.015Z,17.00
2022-08-24T06:54:21.745Z,17.20
2022-08-24T06:56:50.728Z,17.40
2022-08-24T06:59:18.959Z,17.60
2022-08-24T07:01:47.035Z,17.80
2022-08-24T07:04:15.688Z,18.00
2022-08-24T07:07:02.427Z,18.10
2022-08-24T07:09:34.170Z,18.30
2022-08-24T07:12:02.457Z,18.50
2022-08-24T07:14:31.261Z,18.60
2022-08-24T07:17:01.122Z,18.80
2022-08-24T07:19:29.651Z,18.90
2022-08-24T07:21:58.707Z,19.00
2022-08-24T07:24:27.680Z,19.10
2022-08-24T07:26:57.417Z,19.10
2022-08-24T07:29:46.415Z,19.20
2022-08-24T07:32:13.368Z,19.30
2022-08-24T07:34:43.733Z,19.50
2022-08-24T07:37:11.773Z,19.60
2022-08-24T07:39:43.838Z,19.80
2022-08-24T07:42:19.065Z,19.90
2022-08-24T07:44:54.101Z,19.90
2022-08-24T07:47:42.356Z,20.00
2022-08-24T07:50:23.661Z,20.00
2022-08-24T07:52:51.646Z,20.00
2022-08-24T07:55:20.030Z,20.00
2022-08-24T07:57:49.662Z,20.00
2022-08-24T08:00:20.454Z,20.00
2022-08-24T08:02:54.093Z,20.10
2022-08-24T08:05:24.228Z,20.20
2022-08-24T08:07:54.221Z,20.20
2022-08-24T08:10:23.395Z,20.40
2022-08-24T08:12:54.215Z,20.50
2022-08-24T08:15:22.399Z,20.70
2022-08-24T08:17:58.400Z,20.80
2022-08-24T08:20:26.748Z,20.60
2022-08-24T08:23:12.233Z,20.40
2022-08-24T08:26:06.449Z,20.50
2022-08-24T08:28:49.784Z,20.40
2022-08-24T08:31:17.912Z,20.50
2022-08-24T08:33:46.240Z,20.50
2022-08-24T08:36:16.113Z,20.50
2022-08-24T08:38:50.396Z,20.40
2022-08-24T08:41:51.076Z,20.50
2022-08-24T08:44:38.535Z,20.50
2022-08-24T08:47:22.632Z,20.60
2022-08-24T08:50:06.445Z,20.70
2022-08-24T08:52:59.596Z,20.60
2022-08-24T08:55:34.117Z,20.60
2022-08-24T08:58:19.488Z,20.70
2022-08-24T09:01:01.446Z,20.90
2022-08-24T09:03:40.237Z,21.00
2022-08-24T09:06:45.495Z,21.10
2022-08-24T09:09:42.048Z,21.00
2022-08-24T09:12:20.361Z,21.20
2022-08-24T09:15:07.511Z,21.50
2022-08-24T09:17:48.627Z,21.50
2022-08-24T09:20:47.259Z,21.70
2022-08-24T09:23:23.630Z,21.70
2022-08-24T09:26:03.263Z,21.80
2022-08-24T09:28:44.363Z,21.80
2022-08-24T09:31:51.022Z,21.70
2022-08-24T09:34:34.609Z,21.80
2022-08-24T09:37:19.159Z,21.80
2022-08-24T09:40:01.946Z,21.80
2022-08-24T09:43:11.529Z,21.80
2022-08-24T09:46:12.420Z,21.90
2022-08-24T09:49:23.793Z,21.90
2022-08-24T09:52:23.226Z,22.00
2022-08-24T09:55:25.438Z,22.00
2022-08-24T09:58:04.776Z,22.20
2022-08-24T10:00:49.571Z,22.20
2022-08-24T10:03:36.266Z,22.00
2022-08-24T10:06:21.479Z,22.10
2022-08-24T10:09:08.210Z,22.20
2022-08-24T10:11:45.461Z,22.00
2022-08-24T10:14:20.489Z,22.10
2022-08-24T10:16:57.837Z,22.10
2022-08-24T10:19:49.164Z,22.10
2022-08-24T10:22:38.078Z,21.90
2022-08-24T10:25:25.762Z,21.90
2022-08-24T10:28:04.427Z,22.10
2022-08-24T10:31:00.544Z,22.10
2022-08-24T10:33:31.691Z,22.10
2022-08-24T10:36:25.271Z,22.20
2022-08-24T10:39:22.621Z,22.40
2022-08-24T10:42:35.311Z,22.40
2022-08-24T10:45:18.184Z,22.60
2022-08-24T10:48:09.563Z,22.80
2022-08-24T10:50:53.447Z,22.80
2022-08-24T10:53:26.142Z,22.90
2022-08-24T10:56:10.494Z,22.90
2022-08-24T10:59:03.382Z,22.90
2022-08-24T11:01:33.710Z,23.10
2022-08-24T11:04:07.267Z,23.50
2022-08-24T11:06:39.310Z,23.60
2022-08-24T11:09:10.906Z,23.70
2022-08-24T11:11:40.921Z,23.70
2022-08-24T11:14:25.441Z,23.90
2022-08-24T11:16:57.552Z,23.90
2022-08-24T11:19:34.968Z,24.00
2022-08-24T11:22:06.307Z,24.20
2022-08-24T11:24:44.148Z,24.20
2022-08-24T11:27:26.945Z,24.40
2022-08-24T11:30:02.398Z,24.50
2022-08-24T11:32:37.575Z,24.40
2022-08-24T11:35:09.442Z,24.30
2022-08-24T11:37:40.092Z,24.10
2022-08-24T11:40:10.847Z,23.90
2022-08-24T11:43:26.448Z,23.70
2022-08-24T11:46:08.446Z,23.60
2022-08-24T11:48:47.477Z,23.60
2022-08-24T11:51:24.420Z,23.80
2022-08-24T11:54:01.685Z,24.20
2022-08-24T11:56:39.287Z,24.50
2022-08-24T11:59:18.892Z,24.80
2022-08-24T12:01:55.192Z,25.20
2022-08-24T12:04:47.482Z,25.60
2022-08-24T12:07:33.371Z,26.00
2022-08-24T12:10:21.422Z,26.50
2022-08-24T12:12:55.912Z,26.40
2022-08-24T12:15:35.456Z,26.30
2022-08-24T12:18:10.119Z,26.40
2022-08-24T12:20:42.521Z,26.30
2022-08-24T12:23:20.464Z,26.40
2022-08-24T12:26:05.288Z,26.20
2022-08-24T12:28:39.315Z,26.20
2022-08-24T12:31:14.156Z,26.00
2022-08-24T12:33:48.423Z,25.90
2022-08-24T12:36:23.868Z,25.70
2022-08-24T12:39:04.719Z,25.90
2022-08-24T12:41:37.000Z,25.90
2022-08-24T12:44:12.228Z,26.00
2022-08-24T12:46:43.011Z,26.10
2022-08-24T12:49:23.625Z,26.30
2022-08-24T12:52:21.339Z,26.20
2022-08-24T12:55:11.971Z,26.20
2022-08-24T12:57:54.088Z,26.10
2022-08-24T13:00:28.012Z,25.90
2022-08-24T13:02:59.484Z,25.70
2022-08-24T13:05:41.454Z,25.40
2022-08-24T13:08:16.482Z,25.30
2022-08-24T13:10:54.047Z,25.30
2022-08-24T13:13:40.252Z,25.20
2022-08-24T13:16:10.280Z,25.20
2022-08-24T13:19:10.585Z,25.10
2022-08-24T13:21:51.731Z,25.20
2022-08-24T13:25:18.808Z,25.20
2022-08-24T13:28:12.368Z,25.20
2022-08-24T13:31:04.135Z,25.30
2022-08-24T13:33:36.563Z,25.40
2022-08-24T13:36:22.873Z,25.30
2022-08-24T13:39:05.443Z,25.30
2022-08-24T13:41:47.800Z,25.40
2022-08-24T13:44:27.400Z,25.60
2022-08-24T13:47:03.808Z,25.80
2022-08-24T13:49:46.469Z,25.90
2022-08-24T13:52:24.769Z,25.80
2022-08-24T13:55:16.229Z,25.70
2022-08-24T13:57:49.560Z,25.70
2022-08-24T14:00:43.894Z,25.70
2022-08-24T14:03:33.625Z,25.70
2022-08-24T14:06:09.495Z,25.70
2022-08-24T14:08:48.912Z,25.70
2022-08-24T14:11:22.975Z,25.70
2022-08-24T14:14:03.191Z,25.90
2022-08-24T14:17:05.007Z,25.90
2022-08-24T14:19:43.407Z,25.70
2022-08-24T14:22:24.147Z,25.50
2022-08-24T14:25:14.655Z,25.40
2022-08-24T14:27:46.219Z,25.50
2022-08-24T14:30:43.071Z,25.50
2022-08-24T14:33:20.359Z,25.50
2022-08-24T14:36:04.377Z,25.50
2022-08-24T14:38:51.621Z,25.40
2022-08-24T14:41:26.920Z,25.30
2022-08-24T14:44:07.005Z,25.20
2022-08-24T14:46:42.249Z,25.20
2022-08-24T14:49:17.735Z,25.20
2022-08-24T14:51:59.978Z,25.20
2022-08-24T14:54:38.127Z,25.00
2022-08-24T14:57:25.263Z,25.00
2022-08-24T15:00:07.165Z,24.90
2022-08-24T15:03:04.989Z,24.80
2022-08-24T15:05:42.385Z,24.70
2022-08-24T15:08:16.300Z,24.60
2022-08-24T15:10:53.525Z,24.60
2022-08-24T15:13:32.533Z,24.60
2022-08-24T15:16:10.474Z,24.50
2022-08-24T15:18:45.481Z,24.30
2022-08-24T15:21:29.596Z,24.30
2022-08-24T15:24:10.107Z,24.30
2022-08-24T15:26:58.075Z,24.50
2022-08-24T15:29:30.317Z,24.60
2022-08-24T15:32:05.135Z,24.80
2022-08-24T15:34:53.184Z,24.90
2022-08-24T15:37:31.011Z,25.10
2022-08-24T15:40:00.213Z,25.10
2022-08-24T15:42:31.200Z,25.30
2022-08-24T15:45:02.067Z,25.40
2022-08-24T15:47:33.921Z,25.50
2022-08-24T15:50:04.536Z,25.70
2022-08-24T15:52:45.561Z,25.70
2022-08-24T15:55:28.197Z,25.80
2022-08-24T15:57:56.915Z,25.90
2022-08-24T16:00:52.825Z,26.00
2022-08-24T16:03:24.106Z,26.00
2022-08-24T16:05:53.644Z,26.00
2022-08-24T16:08:21.661Z,26.00
2022-08-24T16:10:52.419Z,26.00
2022-08-24T16:13:29.215Z,25.90
2022-08-24T16:16:03.646Z,25.70
2022-08-24T16:18:47.569Z,25.40
2022-08-24T16:21:21.042Z,25.40
2022-08-24T16:24:01.764Z,25.40
2022-08-24T16:26:32.781Z,25.40
2022-08-24T16:29:00.892Z,25.30
2022-08-24T16:31:48.206Z,25.30
2022-08-24T16:34:27.829Z,25.30
2022-08-24T16:36:56.036Z,25.30
2022-08-24T16:39:24.081Z,25.30
2022-08-24T16:41:53.561Z,25.30
2022-08-24T16:44:26.181Z,25.00
2022-08-24T16:46:54.280Z,24.90
2022-08-24T16:49:23.581Z,24.80
2022-08-24T16:51:51.557Z,24.80
2022-08-24T16:54:20.040Z,24.70
2022-08-24T16:56:48.151Z,24.70
2022-08-24T16:59:21.463Z,24.70
2022-08-24T17:01:50.244Z,24.60
2022-08-24T17:04:18.729Z,24.50
2022-08-24T17:06:49.776Z,24.30
2022-08-24T17:09:19.608Z,24.20
2022-08-24T17:11:47.957Z,24.20
2022-08-24T17:14:16.850Z,24.10
2022-08-24T17:16:44.888Z,24.00
2022-08-24T17:19:15.963Z,24.00
2022-08-24T17:21:45.628Z,24.00
2022-08-24T17:24:16.303Z,23.90
2022-08-24T17:26:45.773Z,23.90
2022-08-24T17:29:19.137Z,23.90
2022-08-24T17:31:49.754Z,23.90
2022-08-24T17:34:20.374Z,23.80
2022-08-24T17:36:50.627Z,23.80
2022-08-24T17:39:20.762Z,23.70
2022-08-24T17:41:49.236Z,23.70
2022-08-24T17:44:21.291Z,23.60
2022-08-24T17:46:50.373Z,23.50
2022-08-24T17:49:19.167Z,23.40
2022-08-24T17:51:48.429Z,23.30
2022-08-24T17:54:16.628Z,23.10
2022-08-24T17:56:48.759Z,23.00
2022-08-24T17:59:23.598Z,22.90
2022-08-24T18:01:54.425Z,22.70
2022-08-24T18:04:25.649Z,22.60
2022-08-24T18:06:54.272Z,22.50
2022-08-24T18:09:28.767Z,22.40
2022-08-24T18:11:59.915Z,22.30
2022-08-24T18:14:28.030Z,22.20
2022-08-24T18:16:57.566Z,22.10
2022-08-24T18:19:26.821Z,21.90
2022-08-24T18:21:54.918Z,21.80
2022-08-24T18:24:24.932Z,21.70
2022-08-24T18:26:53.405Z,21.60
2022-08-24T18:29:24.010Z,21.50
2022-08-24T18:31:52.263Z,21.40
2022-08-24T18:34:22.205Z,21.30
2022-08-24T18:36:50.366Z,21.20
2022-08-24T18:39:19.041Z,21.10
2022-08-24T18:41:49.550Z,21.00
2022-08-24T18:44:19.840Z,20.90
2022-08-24T18:46:49.173Z,20.80
2022-08-24T18:49:17.880Z,20.70
2022-08-24T18:51:48.078Z,20.60
2022-08-24T18:54:19.857Z,20.40
2022-08-24T18:56:48.320Z,20.40
2022-08-24T18:59:18.487Z,20.30
2022-08-24T19:02:08.512Z,20.20
2022-08-24T19:04:40.900Z,20.00
2022-08-24T19:07:09.445Z,20.00
2022-08-24T19:09:38.042Z,19.90
2022-08-24T19:12:07.436Z,19.80
2022-08-24T19:14:38.262Z,19.70
2022-08-24T19:17:07.959Z,19.60
2022-08-24T19:19:36.468Z,19.50
2022-08-24T19:22:05.092Z,19.50
2022-08-24T19:24:34.204Z,19.40
2022-08-24T19:27:02.569Z,19.30
2022-08-24T19:29:54.487Z,19.20
2022-08-24T19:32:23.765Z,19.20
2022-08-24T19:34:53.301Z,19.00
2022-08-24T19:37:22.440Z,18.90
2022-08-24T19:39:51.420Z,18.80
2022-08-24T19:42:19.642Z,18.70
2022-08-24T19:45:05.776Z,18.70
2022-08-24T19:47:36.228Z,18.60
2022-08-24T19:50:07.784Z,18.60
2022-08-24T19:52:38.248Z,18.50
2022-08-24T19:55:08.436Z,18.50
2022-08-24T19:57:43.147Z,18.50
2022-08-24T20:00:37.721Z,18.40
2022-08-24T20:03:08.680Z,18.40
2022-08-24T20:05:37.786Z,18.30
2022-08-24T20:08:05.899Z,18.30
2022-08-24T20:10:35.114Z,18.20
2022-08-24T20:13:03.361Z,18.20
2022-08-24T20:15:31.492Z,18.10
2022-08-24T20:18:00.103Z,18.00
2022-08-24T20:20:31.052Z,18.00
2022-08-24T20:23:06.072Z,17.90
2022-08-24T20:25:36.099Z,17.90
2022-08-24T20:28:28.295Z,17.80
2022-08-24T20:30:54.358Z,17.70
2022-08-24T20:33:23.710Z,17.70
2022-08-24T20:35:55.000Z,17.60
2022-08-24T20:38:24.189Z,17.60
2022-08-24T20:40:53.115Z,17.50
2022-08-24T20:43:21.769Z,17.50
2022-08-24T20:45:51.649Z,17.50
2022-08-24T20:48:25.925Z,17.40
2022-08-24T20:50:55.633Z,17.40
2022-08-24T20:53:23.551Z,17.30
2022-08-24T20:55:53.626Z,17.20
2022-08-24T20:58:22.787Z,17.00
2022-08-24T21:00:50.944Z,16.90
2022-08-24T21:03:19.187Z,16.80
2022-08-24T21:05:48.469Z,16.80
2022-08-24T21:08:17.728Z,16.70
2022-08-24T21:10:45.694Z,16.70
2022-08-24T21:13:13.828Z,16.60
2022-08-24T21:15:42.377Z,16.60
2022-08-24T21:18:10.927Z,16.60
2022-08-24T21:20:42.670Z,16.60
2022-08-24T21:23:18.555Z,16.50
2022-08-24T21:25:47.288Z,16.50
2022-08-24T21:28:19.152Z,16.50
2022-08-24T21:30:47.197Z,16.50
2022-08-24T21:33:32.554Z,16.50
2022-08-24T21:36:00.436Z,16.50
2022-08-24T21:38:32.327Z,16.50
2022-08-24T21:41:00.526Z,16.40
2022-08-24T21:43:28.456Z,16.50
2022-08-24T21:45:56.520Z,16.50
2022-08-24T21:48:24.517Z,16.50
2022-08-24T21:50:52.596Z,16.40
2022-08-24T21:53:20.760Z,16.40
2022-08-24T21:55:53.852Z,16.40
2022-08-24T21:58:23.945Z,16.40
2022-08-24T22:00:52.149Z,16.40
2022-08-24T22:03:20.952Z,16.50
2022-08-24T22:05:49.286Z,16.50
2022-08-24T22:08:17.347Z,16.50
2022-08-24T22:10:45.262Z,16.50
2022-08-24T22:13:16.175Z,16.50
2022-08-24T22:15:44.782Z,16.50
2022-08-24T22:18:12.785Z,16.60
2022-08-24T22:20:40.791Z,16.60
2022-08-24T22:23:08.793Z,16.60
2022-08-24T22:25:36.693Z,16.60
2022-08-24T22:28:04.925Z,16.60
2022-08-24T22:30:35.000Z,16.60
2022-08-24T22:33:04.976Z,16.60
2022-08-24T22:35:39.866Z,16.50
2022-08-24T22:38:13.977Z,16.50
2022-08-24T22:40:43.097Z,16.40
2022-08-24T22:43:11.747Z,16.40
2022-08-24T22:45:40.996Z,16.30
2022-08-24T22:48:08.915Z,16.40
2022-08-24T22:50:37.062Z,16.40
2022-08-24T22:53:05.115Z,16.40
2022-08-24T22:55:33.382Z,16.40
2022-08-24T22:58:03.400Z,16.40
2022-08-24T23:00:32.099Z,16.40
2022-08-24T23:03:01.437Z,16.30
2022-08-24T23:05:29.601Z,16.30
2022-08-24T23:08:00.484Z,16.30
2022-08-24T23:10:28.680Z,16.20
2022-08-24T23:12:56.935Z,16.20
2022-08-24T23:15:24.861Z,16.20
2022-08-24T23:17:54.310Z,16.10
2022-08-24T23:20:22.613Z,16.00
2022-08-24T23:22:50.615Z,15.90
2022-08-24T23:25:18.544Z,15.80
2022-08-24T23:27:49.461Z,15.80
2022-08-24T23:30:18.074Z,15.70
2022-08-24T23:32:46.245Z,15.70
2022-08-24T23:35:14.298Z,15.80
2022-08-24T23:37:43.558Z,15.80
2022-08-24T23:40:12.284Z,15.80
2022-08-24T23:42:40.212Z,15.70
2022-08-24T23:45:11.773Z,15.70
2022-08-24T23:47:40.385Z,15.70
2022-08-24T23:50:10.994Z,15.70
2022-08-24T23:52:40.465Z,15.60
2022-08-24T23:55:21.583Z,15.60
2022-08-24T23:57:51.316Z,15.50
